METAR Data
IDs: Format: Raw Decoded Include TAF

Data at: 0800 UTC 23 Sep 2018

KLBL 230756Z AUTO 22007KT 10SM CLR 09/06 A3009 RMK AO2 SLP173 T00890061
KLBL 230656Z AUTO 00000KT 10SM CLR 08/06 A3010 RMK AO2 SLP178 T00830061
KLBL 230556Z AUTO 19007KT 10SM CLR 09/06 A3011 RMK AO2 SLP183 T00940061 10217 20094 402500050 58005
KLBL 230456Z AUTO 17007KT 10SM CLR 11/07 A3012 RMK AO2 SLP186 T01110072
KLBL 230356Z AUTO 16007KT 10SM CLR 11/07 A3013 RMK AO2 SLP192 T01110072 TSNO
KLBL 230256Z AUTO 15007KT 10SM CLR 13/07 A3013 RMK AO2 SLP192 T01330067 53008
KLBL 230156Z AUTO 14006KT 10SM CLR 15/07 A3012 RMK AO2 SLP189 T01500072
KLBL 230056Z AUTO 14006KT 10SM CLR 17/07 A3011 RMK AO2 SLP191 T01670072
KLBL 222356Z AUTO 13009KT 10SM CLR 22/06 A3010 RMK AO2 SLP182 T02220061 10250 20200 56010
KLBL 222256Z AUTO 15009KT 10SM CLR 24/07 A3010 RMK AO2 SLP179 T02440072
KLBL 222156Z AUTO 15008KT 10SM CLR 25/07 A3012 RMK AO2 SLP182 T02500072
KLBL 222056Z AUTO 17007KT 10SM CLR 24/07 A3014 RMK AO2 SLP189 T02440067 56030
KLBL 221956Z AUTO 12006KT 10SM CLR 24/07 A3017 RMK AO2 SLP199 T02390067
KLBL 221856Z AUTO 18005KT 5SM HZ CLR 22/07 A3020 RMK AO2 SLP212 T02220072
KLBL 221756Z AUTO 11003KT 10SM CLR 20/08 A3023 RMK AO2 SLP224 T02000083 10200 20050 58018
KLBL 221656Z AUTO 10004KT 10SM CLR 18/08 A3026 RMK AO2 SLP235 T01780083
KLBL 221556Z AUTO 15005KT 10SM CLR 15/08 A3028 RMK AO2 SLP242 T01500083
KLBL 221456Z AUTO 14006KT 10SM CLR 13/09 A3029 RMK AO2 SLP247 T01280089 55003
KLBL 221356Z AUTO 00000KT 10SM CLR 11/08 A3029 RMK AO2 SLP247 T01060083
KLBL 221315Z AUTO 28003KT 10SM SCT002 06/05 A3030 RMK AO2
KLBL 221256Z AUTO 29004KT 10SM CLR 05/04 A3030 RMK AO2 SLP253 T00500039
KLBL 221156Z AUTO 27003KT 10SM CLR 05/04 A3030 RMK AO2 SLP252 T00500039 10106 20050 55002
KLBL 221056Z AUTO 00000KT 10SM CLR 06/04 A3029 RMK AO2 SLP247 T00610044
KLBL 220956Z AUTO 00000KT 10SM CLR 07/06 A3030 RMK AO2 SLP246 T00720056
KLBL 220756Z AUTO 30003KT 10SM CLR 08/06 A3031 RMK AO2 SLP251 T00780056
KLBL 220656Z AUTO 00000KT 10SM CLR 09/06 A3032 RMK AO2 SLP251 T00940056
KLBL 220556Z AUTO 00000KT 10SM CLR 11/07 A3032 RMK AO2 SLP253 T01110067 10217 20106 402390106 50002
KLBL 220456Z AUTO 00000KT 10SM CLR 12/07 A3033 RMK AO2 SLP258 T01170067
KLBL 220356Z AUTO 00000KT 8SM CLR 14/07 A3032 RMK AO2 SLP255 T01390067
KLBL 220256Z AUTO 09005KT 10SM CLR 15/07 A3032 RMK AO2 SLP253 T01500072 53016
KLBL 220156Z AUTO 06005KT 9SM CLR 17/07 A3029 RMK AO2 SLP241 T01720072
KLBL 220056Z AUTO 05007KT 10SM CLR 19/07 A3027 RMK AO2 SLP231 T01940067
KLBL 212356Z AUTO 06012KT 10SM CLR 22/07 A3026 RMK AO2 SLP226 T02170072 10239 20206 53009
KLBL 212256Z AUTO 08015G19KT 10SM CLR 23/07 A3025 RMK AO2 SLP218 T02280072
KLBL 212156Z AUTO 07012KT 10SM CLR 24/07 A3024 RMK AO2 SLP214 T02390072
KLBL 212056Z AUTO 06018G22KT 10SM CLR 24/05 A3024 RMK AO2 SLP213 T02390050 58008